Bankston, Iowa
Current Conditions -  °F | °C
As of 5:53 PM on Friday 31 Oct 2014 (Local Time) from KDBQ Reporting Station
Clear Clear  
Wind Chill: 27°   Ceiling: Unl
Heat Index: 36°   Visibility: 10mi
Dew Point: 17°   Wind: 15mph
Humidity: 46%   Direction: 10°N
Pressure: 30.39"   Gusts: 24mph
Location:  42.4445°N, 90.9251°W
Report Text: KDBQ 312253Z 01013G21KT 10SM CLR 02/M08 A3039 RMK AO2 SLP304 T00221083
Loading
Personal Weather Stations






























Interactive Weather Map
Tropical Storm Tracking
New forecast layout! Learn more

10-Day Weather Forecast

Advertisements
Track Severe Weather on mobile